sensor_id;sensor_type;location;lat;lon;timestamp;temperature;humidity
39021;DHT22;25188;51.958;5.842;2022-07-10T00:00:31;16.40;77.60
39021;DHT22;25188;51.958;5.842;2022-07-10T00:02:58;16.40;77.60
39021;DHT22;25188;51.958;5.842;2022-07-10T00:05:25;16.40;77.60
39021;DHT22;25188;51.958;5.842;2022-07-10T00:07:51;16.40;77.70
39021;DHT22;25188;51.958;5.842;2022-07-10T00:10:18;16.40;77.70
39021;DHT22;25188;51.958;5.842;2022-07-10T00:12:45;16.50;77.80
39021;DHT22;25188;51.958;5.842;2022-07-10T00:15:11;16.50;78.00
39021;DHT22;25188;51.958;5.842;2022-07-10T00:17:37;16.40;77.70
39021;DHT22;25188;51.958;5.842;2022-07-10T00:20:05;16.40;77.90
39021;DHT22;25188;51.958;5.842;2022-07-10T00:22:36;16.40;77.90
39021;DHT22;25188;51.958;5.842;2022-07-10T00:25:03;16.40;77.90
39021;DHT22;25188;51.958;5.842;2022-07-10T00:27:29;16.40;77.90
39021;DHT22;25188;51.958;5.842;2022-07-10T00:29:54;16.40;78.00
39021;DHT22;25188;51.958;5.842;2022-07-10T00:32:20;16.40;78.00
39021;DHT22;25188;51.958;5.842;2022-07-10T00:34:45;16.40;78.10
39021;DHT22;25188;51.958;5.842;2022-07-10T00:37:11;16.40;78.20
39021;DHT22;25188;51.958;5.842;2022-07-10T00:39:37;16.40;78.40
39021;DHT22;25188;51.958;5.842;2022-07-10T00:44:33;16.30;78.50
39021;DHT22;25188;51.958;5.842;2022-07-10T00:46:59;16.30;78.50
39021;DHT22;25188;51.958;5.842;2022-07-10T00:49:25;16.30;78.80
39021;DHT22;25188;51.958;5.842;2022-07-10T00:51:50;16.30;78.60
39021;DHT22;25188;51.958;5.842;2022-07-10T00:54:17;16.20;78.80
39021;DHT22;25188;51.958;5.842;2022-07-10T00:56:43;16.10;78.80
39021;DHT22;25188;51.958;5.842;2022-07-10T00:59:09;16.10;79.00
39021;DHT22;25188;51.958;5.842;2022-07-10T01:01:35;16.10;79.20
39021;DHT22;25188;51.958;5.842;2022-07-10T01:04:01;16.00;79.40
39021;DHT22;25188;51.958;5.842;2022-07-10T01:06:27;16.10;79.50
39021;DHT22;25188;51.958;5.842;2022-07-10T01:08:53;16.00;79.70
39021;DHT22;25188;51.958;5.842;2022-07-10T01:11:19;16.00;79.80
39021;DHT22;25188;51.958;5.842;2022-07-10T01:13:45;16.10;79.90
39021;DHT22;25188;51.958;5.842;2022-07-10T01:16:14;16.00;79.90
39021;DHT22;25188;51.958;5.842;2022-07-10T01:18:40;16.10;80.00
39021;DHT22;25188;51.958;5.842;2022-07-10T01:21:06;16.10;80.00
39021;DHT22;25188;51.958;5.842;2022-07-10T01:23:31;16.10;80.00
39021;DHT22;25188;51.958;5.842;2022-07-10T01:25:57;16.10;80.00
39021;DHT22;25188;51.958;5.842;2022-07-10T01:28:23;16.00;79.90
39021;DHT22;25188;51.958;5.842;2022-07-10T01:30:49;16.10;80.00
39021;DHT22;25188;51.958;5.842;2022-07-10T01:33:14;16.10;80.00
39021;DHT22;25188;51.958;5.842;2022-07-10T01:35:40;16.10;80.20
39021;DHT22;25188;51.958;5.842;2022-07-10T01:38:06;16.10;80.20
39021;DHT22;25188;51.958;5.842;2022-07-10T01:40:32;16.00;80.40
39021;DHT22;25188;51.958;5.842;2022-07-10T01:42:58;16.00;80.40
39021;DHT22;25188;51.958;5.842;2022-07-10T01:45:24;16.00;80.60
39021;DHT22;25188;51.958;5.842;2022-07-10T01:47:49;16.00;80.60
39021;DHT22;25188;51.958;5.842;2022-07-10T01:50:15;16.00;80.70
39021;DHT22;25188;51.958;5.842;2022-07-10T01:52:41;16.00;80.80
39021;DHT22;25188;51.958;5.842;2022-07-10T01:55:07;15.90;80.70
39021;DHT22;25188;51.958;5.842;2022-07-10T01:57:33;15.90;80.70
39021;DHT22;25188;51.958;5.842;2022-07-10T01:59:59;15.90;80.90
39021;DHT22;25188;51.958;5.842;2022-07-10T02:02:24;15.80;81.00
39021;DHT22;25188;51.958;5.842;2022-07-10T02:04:50;15.80;81.20
39021;DHT22;25188;51.958;5.842;2022-07-10T02:07:18;15.80;81.40
39021;DHT22;25188;51.958;5.842;2022-07-10T02:09:44;15.80;81.60
39021;DHT22;25188;51.958;5.842;2022-07-10T02:12:12;15.80;81.80
39021;DHT22;25188;51.958;5.842;2022-07-10T02:14:39;15.70;81.90
39021;DHT22;25188;51.958;5.842;2022-07-10T02:17:06;15.80;82.00
39021;DHT22;25188;51.958;5.842;2022-07-10T02:19:32;15.70;82.00
39021;DHT22;25188;51.958;5.842;2022-07-10T02:21:58;15.70;82.10
39021;DHT22;25188;51.958;5.842;2022-07-10T02:24:24;15.70;82.20
39021;DHT22;25188;51.958;5.842;2022-07-10T02:26:49;15.70;82.30
39021;DHT22;25188;51.958;5.842;2022-07-10T02:29:15;15.70;82.40
39021;DHT22;25188;51.958;5.842;2022-07-10T02:31:41;15.70;82.60
39021;DHT22;25188;51.958;5.842;2022-07-10T02:34:08;15.70;82.90
39021;DHT22;25188;51.958;5.842;2022-07-10T02:36:34;15.70;83.60
39021;DHT22;25188;51.958;5.842;2022-07-10T02:39:00;15.70;82.90
39021;DHT22;25188;51.958;5.842;2022-07-10T02:41:26;15.70;83.00
39021;DHT22;25188;51.958;5.842;2022-07-10T02:43:51;15.70;83.00
39021;DHT22;25188;51.958;5.842;2022-07-10T02:46:17;15.70;83.20
39021;DHT22;25188;51.958;5.842;2022-07-10T02:48:43;15.70;83.30
39021;DHT22;25188;51.958;5.842;2022-07-10T02:51:08;15.60;83.30
39021;DHT22;25188;51.958;5.842;2022-07-10T02:53:34;15.70;83.60
39021;DHT22;25188;51.958;5.842;2022-07-10T02:56:00;15.70;83.60
39021;DHT22;25188;51.958;5.842;2022-07-10T02:58:25;15.60;83.90
39021;DHT22;25188;51.958;5.842;2022-07-10T03:00:51;15.60;84.00
39021;DHT22;25188;51.958;5.842;2022-07-10T03:03:17;15.60;84.20
39021;DHT22;25188;51.958;5.842;2022-07-10T03:05:44;15.50;84.20
39021;DHT22;25188;51.958;5.842;2022-07-10T03:08:10;15.50;84.40
39021;DHT22;25188;51.958;5.842;2022-07-10T03:10:36;15.50;84.70
39021;DHT22;25188;51.958;5.842;2022-07-10T03:13:02;15.50;84.70
39021;DHT22;25188;51.958;5.842;2022-07-10T03:15:27;15.50;84.90
39021;DHT22;25188;51.958;5.842;2022-07-10T03:17:53;15.50;85.10
39021;DHT22;25188;51.958;5.842;2022-07-10T03:20:18;15.50;85.50
39021;DHT22;25188;51.958;5.842;2022-07-10T03:22:44;15.50;85.60
39021;DHT22;25188;51.958;5.842;2022-07-10T03:25:10;15.50;85.70
39021;DHT22;25188;51.958;5.842;2022-07-10T03:27:35;15.50;85.90
39021;DHT22;25188;51.958;5.842;2022-07-10T03:30:01;15.50;85.90
39021;DHT22;25188;51.958;5.842;2022-07-10T03:32:27;15.40;85.90
39021;DHT22;25188;51.958;5.842;2022-07-10T03:34:53;15.40;86.30
39021;DHT22;25188;51.958;5.842;2022-07-10T03:37:19;15.40;86.30
39021;DHT22;25188;51.958;5.842;2022-07-10T03:39:44;15.40;86.30
39021;DHT22;25188;51.958;5.842;2022-07-10T03:42:10;15.40;86.30
39021;DHT22;25188;51.958;5.842;2022-07-10T03:44:36;15.40;86.30
39021;DHT22;25188;51.958;5.842;2022-07-10T03:47:01;15.40;86.30
39021;DHT22;25188;51.958;5.842;2022-07-10T03:49:27;15.50;86.50
39021;DHT22;25188;51.958;5.842;2022-07-10T03:51:53;15.50;86.60
39021;DHT22;25188;51.958;5.842;2022-07-10T03:54:19;15.50;86.50
39021;DHT22;25188;51.958;5.842;2022-07-10T03:56:44;15.50;86.70
39021;DHT22;25188;51.958;5.842;2022-07-10T03:59:29;15.50;86.70
39021;DHT22;25188;51.958;5.842;2022-07-10T04:01:54;15.50;86.90
39021;DHT22;25188;51.958;5.842;2022-07-10T04:04:20;15.50;86.90
39021;DHT22;25188;51.958;5.842;2022-07-10T04:06:46;15.50;86.90
39021;DHT22;25188;51.958;5.842;2022-07-10T04:09:11;15.50;87.00
39021;DHT22;25188;51.958;5.842;2022-07-10T04:11:37;15.50;87.00
39021;DHT22;25188;51.958;5.842;2022-07-10T04:14:03;15.50;87.00
39021;DHT22;25188;51.958;5.842;2022-07-10T04:16:29;15.60;87.10
39021;DHT22;25188;51.958;5.842;2022-07-10T04:18:54;15.50;86.90
39021;DHT22;25188;51.958;5.842;2022-07-10T04:21:20;15.60;87.10
39021;DHT22;25188;51.958;5.842;2022-07-10T04:23:45;15.60;87.20
39021;DHT22;25188;51.958;5.842;2022-07-10T04:26:11;15.60;87.20
39021;DHT22;25188;51.958;5.842;2022-07-10T04:28:37;15.60;87.30
39021;DHT22;25188;51.958;5.842;2022-07-10T04:31:02;15.60;87.20
39021;DHT22;25188;51.958;5.842;2022-07-10T04:33:28;15.60;87.30
39021;DHT22;25188;51.958;5.842;2022-07-10T04:35:53;15.70;87.30
39021;DHT22;25188;51.958;5.842;2022-07-10T04:38:19;15.70;87.30
39021;DHT22;25188;51.958;5.842;2022-07-10T04:40:45;15.70;87.30
39021;DHT22;25188;51.958;5.842;2022-07-10T04:43:10;15.60;87.20
39021;DHT22;25188;51.958;5.842;2022-07-10T04:45:36;15.70;87.20
39021;DHT22;25188;51.958;5.842;2022-07-10T04:48:04;15.70;87.40
39021;DHT22;25188;51.958;5.842;2022-07-10T04:50:30;15.70;87.40
39021;DHT22;25188;51.958;5.842;2022-07-10T04:52:56;15.70;87.30
39021;DHT22;25188;51.958;5.842;2022-07-10T04:55:22;15.70;87.40
39021;DHT22;25188;51.958;5.842;2022-07-10T04:57:48;15.70;87.50
39021;DHT22;25188;51.958;5.842;2022-07-10T05:00:14;15.70;87.30
39021;DHT22;25188;51.958;5.842;2022-07-10T05:02:40;15.80;87.50
39021;DHT22;25188;51.958;5.842;2022-07-10T05:05:06;15.80;87.20
39021;DHT22;25188;51.958;5.842;2022-07-10T05:07:32;15.80;87.20
39021;DHT22;25188;51.958;5.842;2022-07-10T05:09:57;15.80;87.30
39021;DHT22;25188;51.958;5.842;2022-07-10T05:12:23;15.80;87.20
39021;DHT22;25188;51.958;5.842;2022-07-10T05:14:48;15.90;87.30
39021;DHT22;25188;51.958;5.842;2022-07-10T05:17:14;15.90;87.20
39021;DHT22;25188;51.958;5.842;2022-07-10T05:19:40;15.90;87.20
39021;DHT22;25188;51.958;5.842;2022-07-10T05:22:05;16.00;87.30
39021;DHT22;25188;51.958;5.842;2022-07-10T05:24:31;16.00;87.20
39021;DHT22;25188;51.958;5.842;2022-07-10T05:26:56;16.00;87.20
39021;DHT22;25188;51.958;5.842;2022-07-10T05:29:22;16.10;87.20
39021;DHT22;25188;51.958;5.842;2022-07-10T05:31:48;16.10;87.10
39021;DHT22;25188;51.958;5.842;2022-07-10T05:34:13;16.10;87.10
39021;DHT22;25188;51.958;5.842;2022-07-10T05:36:39;16.10;87.10
39021;DHT22;25188;51.958;5.842;2022-07-10T05:39:04;16.20;87.20
39021;DHT22;25188;51.958;5.842;2022-07-10T05:41:30;16.20;87.10
39021;DHT22;25188;51.958;5.842;2022-07-10T05:43:58;16.30;87.20
39021;DHT22;25188;51.958;5.842;2022-07-10T05:46:25;16.30;87.20
39021;DHT22;25188;51.958;5.842;2022-07-10T05:48:50;16.30;87.30
39021;DHT22;25188;51.958;5.842;2022-07-10T05:51:16;16.30;87.20
39021;DHT22;25188;51.958;5.842;2022-07-10T05:53:42;16.30;87.20
39021;DHT22;25188;51.958;5.842;2022-07-10T05:56:07;16.40;87.40
39021;DHT22;25188;51.958;5.842;2022-07-10T05:58:33;16.40;87.40
39021;DHT22;25188;51.958;5.842;2022-07-10T06:00:59;16.40;87.40
39021;DHT22;25188;51.958;5.842;2022-07-10T06:03:24;16.40;87.50
39021;DHT22;25188;51.958;5.842;2022-07-10T06:05:50;16.40;87.50
39021;DHT22;25188;51.958;5.842;2022-07-10T06:08:16;16.40;87.50
39021;DHT22;25188;51.958;5.842;2022-07-10T06:10:44;16.50;87.60
39021;DHT22;25188;51.958;5.842;2022-07-10T06:13:11;16.50;87.60
39021;DHT22;25188;51.958;5.842;2022-07-10T06:15:37;16.40;87.60
39021;DHT22;25188;51.958;5.842;2022-07-10T06:18:03;16.50;87.70
39021;DHT22;25188;51.958;5.842;2022-07-10T06:20:28;16.50;87.90
39021;DHT22;25188;51.958;5.842;2022-07-10T06:22:54;16.50;88.00
39021;DHT22;25188;51.958;5.842;2022-07-10T06:25:21;16.50;88.40
39021;DHT22;25188;51.958;5.842;2022-07-10T06:27:46;16.50;88.60
39021;DHT22;25188;51.958;5.842;2022-07-10T06:30:12;16.50;88.70
39021;DHT22;25188;51.958;5.842;2022-07-10T06:32:38;16.50;88.80
39021;DHT22;25188;51.958;5.842;2022-07-10T06:35:04;16.50;88.80
39021;DHT22;25188;51.958;5.842;2022-07-10T06:37:33;16.50;88.80
39021;DHT22;25188;51.958;5.842;2022-07-10T06:39:58;16.50;89.10
39021;DHT22;25188;51.958;5.842;2022-07-10T06:42:24;16.40;89.10
39021;DHT22;25188;51.958;5.842;2022-07-10T06:44:50;16.40;89.70
39021;DHT22;25188;51.958;5.842;2022-07-10T06:47:18;16.40;90.10
39021;DHT22;25188;51.958;5.842;2022-07-10T06:50:04;16.40;90.10
39021;DHT22;25188;51.958;5.842;2022-07-10T06:52:35;16.30;90.30
39021;DHT22;25188;51.958;5.842;2022-07-10T06:55:02;16.30;90.60
39021;DHT22;25188;51.958;5.842;2022-07-10T06:57:28;16.30;90.80
39021;DHT22;25188;51.958;5.842;2022-07-10T06:59:54;16.30;91.00
39021;DHT22;25188;51.958;5.842;2022-07-10T07:02:19;16.30;91.30
39021;DHT22;25188;51.958;5.842;2022-07-10T07:04:45;16.30;91.40
39021;DHT22;25188;51.958;5.842;2022-07-10T07:07:12;16.30;91.50
39021;DHT22;25188;51.958;5.842;2022-07-10T07:09:38;16.30;91.90
39021;DHT22;25188;51.958;5.842;2022-07-10T07:12:04;16.30;92.00
39021;DHT22;25188;51.958;5.842;2022-07-10T07:14:30;16.20;92.20
39021;DHT22;25188;51.958;5.842;2022-07-10T07:16:56;16.30;92.50
39021;DHT22;25188;51.958;5.842;2022-07-10T07:19:44;16.30;92.40
39021;DHT22;25188;51.958;5.842;2022-07-10T07:22:28;16.30;92.50
39021;DHT22;25188;51.958;5.842;2022-07-10T07:25:12;16.40;92.40
39021;DHT22;25188;51.958;5.842;2022-07-10T07:27:38;16.40;92.50
39021;DHT22;25188;51.958;5.842;2022-07-10T07:30:10;16.40;92.50
39021;DHT22;25188;51.958;5.842;2022-07-10T07:32:36;16.50;92.50
39021;DHT22;25188;51.958;5.842;2022-07-10T07:35:03;16.50;92.60
39021;DHT22;25188;51.958;5.842;2022-07-10T07:37:38;16.50;92.70
39021;DHT22;25188;51.958;5.842;2022-07-10T07:40:06;16.60;92.80
39021;DHT22;25188;51.958;5.842;2022-07-10T07:42:32;16.60;92.80
39021;DHT22;25188;51.958;5.842;2022-07-10T07:44:57;16.60;92.80
39021;DHT22;25188;51.958;5.842;2022-07-10T07:47:23;16.60;92.90
39021;DHT22;25188;51.958;5.842;2022-07-10T07:49:49;16.70;93.00
39021;DHT22;25188;51.958;5.842;2022-07-10T07:52:14;16.70;93.00
39021;DHT22;25188;51.958;5.842;2022-07-10T07:54:40;16.80;93.00
39021;DHT22;25188;51.958;5.842;2022-07-10T07:57:06;16.90;93.00
39021;DHT22;25188;51.958;5.842;2022-07-10T07:59:32;16.90;93.00
39021;DHT22;25188;51.958;5.842;2022-07-10T08:01:57;17.00;93.00
39021;DHT22;25188;51.958;5.842;2022-07-10T08:04:23;17.00;92.90
39021;DHT22;25188;51.958;5.842;2022-07-10T08:06:49;17.10;92.80
39021;DHT22;25188;51.958;5.842;2022-07-10T08:09:18;17.00;92.70
39021;DHT22;25188;51.958;5.842;2022-07-10T08:11:43;17.10;92.80
39021;DHT22;25188;51.958;5.842;2022-07-10T08:14:09;17.20;92.80
39021;DHT22;25188;51.958;5.842;2022-07-10T08:16:35;17.20;92.80
39021;DHT22;25188;51.958;5.842;2022-07-10T08:19:01;17.30;92.80
39021;DHT22;25188;51.958;5.842;2022-07-10T08:21:26;17.30;92.70
39021;DHT22;25188;51.958;5.842;2022-07-10T08:23:52;17.40;92.80
39021;DHT22;25188;51.958;5.842;2022-07-10T08:26:19;17.50;92.60
39021;DHT22;25188;51.958;5.842;2022-07-10T08:28:44;17.60;92.40
39021;DHT22;25188;51.958;5.842;2022-07-10T08:31:10;17.80;92.20
39021;DHT22;25188;51.958;5.842;2022-07-10T08:33:36;17.90;92.00
39021;DHT22;25188;51.958;5.842;2022-07-10T08:36:02;18.00;92.00
39021;DHT22;25188;51.958;5.842;2022-07-10T08:38:27;18.10;91.70
39021;DHT22;25188;51.958;5.842;2022-07-10T08:40:54;18.30;91.20
39021;DHT22;25188;51.958;5.842;2022-07-10T08:43:23;18.40;90.80
39021;DHT22;25188;51.958;5.842;2022-07-10T08:45:50;18.50;90.50
39021;DHT22;25188;51.958;5.842;2022-07-10T08:48:22;18.60;90.40
39021;DHT22;25188;51.958;5.842;2022-07-10T08:50:52;18.60;90.00
39021;DHT22;25188;51.958;5.842;2022-07-10T08:53:29;18.60;89.70
39021;DHT22;25188;51.958;5.842;2022-07-10T08:55:58;18.60;89.40
39021;DHT22;25188;51.958;5.842;2022-07-10T08:58:26;18.50;89.00
39021;DHT22;25188;51.958;5.842;2022-07-10T09:00:52;18.50;88.60
39021;DHT22;25188;51.958;5.842;2022-07-10T09:03:18;18.50;88.40
39021;DHT22;25188;51.958;5.842;2022-07-10T09:05:44;18.50;88.40
39021;DHT22;25188;51.958;5.842;2022-07-10T09:08:25;18.50;88.20
39021;DHT22;25188;51.958;5.842;2022-07-10T09:11:14;18.60;87.50
39021;DHT22;25188;51.958;5.842;2022-07-10T09:13:50;18.80;87.10
39021;DHT22;25188;51.958;5.842;2022-07-10T09:16:42;18.90;86.60
39021;DHT22;25188;51.958;5.842;2022-07-10T09:19:25;19.00;85.80
39021;DHT22;25188;51.958;5.842;2022-07-10T09:22:05;19.10;85.40
39021;DHT22;25188;51.958;5.842;2022-07-10T09:24:45;19.30;85.00
39021;DHT22;25188;51.958;5.842;2022-07-10T09:27:13;19.30;84.10
39021;DHT22;25188;51.958;5.842;2022-07-10T09:29:50;19.40;83.10
39021;DHT22;25188;51.958;5.842;2022-07-10T09:32:23;19.40;82.60
39021;DHT22;25188;51.958;5.842;2022-07-10T09:34:51;19.50;82.70
39021;DHT22;25188;51.958;5.842;2022-07-10T09:37:39;19.50;82.90
39021;DHT22;25188;51.958;5.842;2022-07-10T09:40:06;19.60;82.00
39021;DHT22;25188;51.958;5.842;2022-07-10T09:47:41;19.70;80.60
39021;DHT22;25188;51.958;5.842;2022-07-10T09:50:26;19.80;80.60
39021;DHT22;25188;51.958;5.842;2022-07-10T09:52:58;19.80;80.20
39021;DHT22;25188;51.958;5.842;2022-07-10T09:55:29;19.80;80.30
39021;DHT22;25188;51.958;5.842;2022-07-10T09:57:57;19.60;80.20
39021;DHT22;25188;51.958;5.842;2022-07-10T10:00:34;19.60;80.00
39021;DHT22;25188;51.958;5.842;2022-07-10T10:03:01;19.50;79.60
39021;DHT22;25188;51.958;5.842;2022-07-10T10:08:12;19.60;80.00
39021;DHT22;25188;51.958;5.842;2022-07-10T10:10:47;19.70;80.10
39021;DHT22;25188;51.958;5.842;2022-07-10T10:13:19;19.90;79.70
39021;DHT22;25188;51.958;5.842;2022-07-10T10:15:50;20.00;79.20
39021;DHT22;25188;51.958;5.842;2022-07-10T10:18:20;20.10;78.10
39021;DHT22;25188;51.958;5.842;2022-07-10T10:20:47;20.10;77.80
39021;DHT22;25188;51.958;5.842;2022-07-10T10:23:32;20.20;77.50
39021;DHT22;25188;51.958;5.842;2022-07-10T10:25:58;20.30;77.30
39021;DHT22;25188;51.958;5.842;2022-07-10T10:28:25;20.60;77.30
39021;DHT22;25188;51.958;5.842;2022-07-10T10:30:57;20.70;76.70
39021;DHT22;25188;51.958;5.842;2022-07-10T10:35:58;20.80;75.50
39021;DHT22;25188;51.958;5.842;2022-07-10T10:38:24;20.80;74.70
39021;DHT22;25188;51.958;5.842;2022-07-10T10:40:49;20.80;74.30
39021;DHT22;25188;51.958;5.842;2022-07-10T10:43:23;20.80;74.60
39021;DHT22;25188;51.958;5.842;2022-07-10T10:45:49;20.90;74.80
39021;DHT22;25188;51.958;5.842;2022-07-10T10:48:16;21.20;74.20
39021;DHT22;25188;51.958;5.842;2022-07-10T10:53:21;21.40;71.80
39021;DHT22;25188;51.958;5.842;2022-07-10T10:58:42;21.30;72.20
39021;DHT22;25188;51.958;5.842;2022-07-10T11:06:49;21.20;71.50
39021;DHT22;25188;51.958;5.842;2022-07-10T11:09:32;21.20;71.60
39021;DHT22;25188;51.958;5.842;2022-07-10T11:12:07;21.20;71.70
39021;DHT22;25188;51.958;5.842;2022-07-10T11:14:35;21.20;71.90
39021;DHT22;25188;51.958;5.842;2022-07-10T11:17:02;21.40;71.90
39021;DHT22;25188;51.958;5.842;2022-07-10T11:19:29;21.70;71.90
39021;DHT22;25188;51.958;5.842;2022-07-10T11:22:17;22.20;71.50
39021;DHT22;25188;51.958;5.842;2022-07-10T11:30:24;22.30;68.00
39021;DHT22;25188;51.958;5.842;2022-07-10T11:32:50;22.10;68.10
39021;DHT22;25188;51.958;5.842;2022-07-10T11:35:16;21.90;68.70
39021;DHT22;25188;51.958;5.842;2022-07-10T11:37:53;21.80;69.10
39021;DHT22;25188;51.958;5.842;2022-07-10T11:40:19;21.70;69.50
39021;DHT22;25188;51.958;5.842;2022-07-10T11:42:55;21.60;69.60
39021;DHT22;25188;51.958;5.842;2022-07-10T11:45:29;21.50;69.40
39021;DHT22;25188;51.958;5.842;2022-07-10T11:47:56;21.50;70.10
39021;DHT22;25188;51.958;5.842;2022-07-10T11:50:22;21.40;70.20
39021;DHT22;25188;51.958;5.842;2022-07-10T11:52:47;21.40;70.50
39021;DHT22;25188;51.958;5.842;2022-07-10T11:55:17;21.40;70.60
39021;DHT22;25188;51.958;5.842;2022-07-10T11:57:43;21.40;70.70
39021;DHT22;25188;51.958;5.842;2022-07-10T12:00:29;21.50;71.00
39021;DHT22;25188;51.958;5.842;2022-07-10T12:02:56;21.80;71.00
39021;DHT22;25188;51.958;5.842;2022-07-10T12:05:32;22.00;70.40
39021;DHT22;25188;51.958;5.842;2022-07-10T12:07:59;22.10;69.50
39021;DHT22;25188;51.958;5.842;2022-07-10T12:10:29;22.10;69.00
39021;DHT22;25188;51.958;5.842;2022-07-10T12:13:15;22.00;69.30
39021;DHT22;25188;51.958;5.842;2022-07-10T12:15:43;21.90;69.40
39021;DHT22;25188;51.958;5.842;2022-07-10T12:18:18;21.90;69.30
39021;DHT22;25188;51.958;5.842;2022-07-10T12:20:45;22.00;69.30
39021;DHT22;25188;51.958;5.842;2022-07-10T12:23:14;22.00;69.20
39021;DHT22;25188;51.958;5.842;2022-07-10T12:25:42;22.10;69.30
39021;DHT22;25188;51.958;5.842;2022-07-10T12:28:09;22.20;68.50
39021;DHT22;25188;51.958;5.842;2022-07-10T12:30:41;22.20;68.20
39021;DHT22;25188;51.958;5.842;2022-07-10T12:33:12;22.40;68.20
39021;DHT22;25188;51.958;5.842;2022-07-10T12:35:46;22.40;67.80
39021;DHT22;25188;51.958;5.842;2022-07-10T12:38:26;22.50;67.60
39021;DHT22;25188;51.958;5.842;2022-07-10T12:41:09;22.60;67.60
39021;DHT22;25188;51.958;5.842;2022-07-10T12:43:36;22.70;66.90
39021;DHT22;25188;51.958;5.842;2022-07-10T12:46:24;22.70;66.30
39021;DHT22;25188;51.958;5.842;2022-07-10T12:49:09;22.80;66.10
39021;DHT22;25188;51.958;5.842;2022-07-10T12:51:45;23.00;65.80
39021;DHT22;25188;51.958;5.842;2022-07-10T12:56:58;23.20;65.10
39021;DHT22;25188;51.958;5.842;2022-07-10T12:59:24;23.40;65.00
39021;DHT22;25188;51.958;5.842;2022-07-10T13:01:50;23.70;65.80
39021;DHT22;25188;51.958;5.842;2022-07-10T13:04:25;23.90;64.00
39021;DHT22;25188;51.958;5.842;2022-07-10T13:07:12;23.90;63.10
39021;DHT22;25188;51.958;5.842;2022-07-10T13:09:39;23.90;63.00
39021;DHT22;25188;51.958;5.842;2022-07-10T13:12:06;23.80;62.80
39021;DHT22;25188;51.958;5.842;2022-07-10T13:14:32;23.70;62.60
39021;DHT22;25188;51.958;5.842;2022-07-10T13:16:57;23.80;63.10
39021;DHT22;25188;51.958;5.842;2022-07-10T13:19:23;23.90;63.10
39021;DHT22;25188;51.958;5.842;2022-07-10T13:21:48;24.10;63.20
39021;DHT22;25188;51.958;5.842;2022-07-10T13:24:14;24.30;62.20
39021;DHT22;25188;51.958;5.842;2022-07-10T13:26:41;24.50;62.00
39021;DHT22;25188;51.958;5.842;2022-07-10T13:29:06;24.60;61.80
39021;DHT22;25188;51.958;5.842;2022-07-10T13:31:32;24.60;61.70
39021;DHT22;25188;51.958;5.842;2022-07-10T13:33:58;24.60;61.40
39021;DHT22;25188;51.958;5.842;2022-07-10T13:36:23;24.70;61.20
39021;DHT22;25188;51.958;5.842;2022-07-10T13:38:50;24.70;61.10
39021;DHT22;25188;51.958;5.842;2022-07-10T13:41:18;24.70;60.90
39021;DHT22;25188;51.958;5.842;2022-07-10T13:43:44;24.80;60.80
39021;DHT22;25188;51.958;5.842;2022-07-10T13:46:10;24.80;60.60
39021;DHT22;25188;51.958;5.842;2022-07-10T13:48:35;24.80;60.50
39021;DHT22;25188;51.958;5.842;2022-07-10T13:51:01;24.90;60.60
39021;DHT22;25188;51.958;5.842;2022-07-10T13:53:27;25.00;60.50
39021;DHT22;25188;51.958;5.842;2022-07-10T13:55:52;25.10;60.70
39021;DHT22;25188;51.958;5.842;2022-07-10T13:58:18;25.00;59.70
39021;DHT22;25188;51.958;5.842;2022-07-10T14:00:46;25.00;59.40
39021;DHT22;25188;51.958;5.842;2022-07-10T14:03:12;25.00;59.30
39021;DHT22;25188;51.958;5.842;2022-07-10T14:05:37;25.10;59.30
39021;DHT22;25188;51.958;5.842;2022-07-10T14:08:03;25.10;59.30
39021;DHT22;25188;51.958;5.842;2022-07-10T14:10:29;25.20;59.20
39021;DHT22;25188;51.958;5.842;2022-07-10T14:12:56;25.30;59.20
39021;DHT22;25188;51.958;5.842;2022-07-10T14:15:21;25.50;59.10
39021;DHT22;25188;51.958;5.842;2022-07-10T14:17:47;25.70;59.00
39021;DHT22;25188;51.958;5.842;2022-07-10T14:20:14;25.90;58.80
39021;DHT22;25188;51.958;5.842;2022-07-10T14:22:40;26.00;58.20
39021;DHT22;25188;51.958;5.842;2022-07-10T14:25:06;26.10;57.80
39021;DHT22;25188;51.958;5.842;2022-07-10T14:27:34;26.10;57.50
39021;DHT22;25188;51.958;5.842;2022-07-10T14:30:00;26.20;57.30
39021;DHT22;25188;51.958;5.842;2022-07-10T14:32:25;26.30;57.10
39021;DHT22;25188;51.958;5.842;2022-07-10T14:34:51;26.50;57.00
39021;DHT22;25188;51.958;5.842;2022-07-10T14:37:17;26.70;56.60
39021;DHT22;25188;51.958;5.842;2022-07-10T14:39:43;26.90;56.30
39021;DHT22;25188;51.958;5.842;2022-07-10T14:42:08;27.00;55.70
39021;DHT22;25188;51.958;5.842;2022-07-10T14:44:37;27.00;55.30
39021;DHT22;25188;51.958;5.842;2022-07-10T14:47:03;27.10;54.90
39021;DHT22;25188;51.958;5.842;2022-07-10T14:49:29;27.20;54.60
39021;DHT22;25188;51.958;5.842;2022-07-10T14:51:58;27.20;54.30
39021;DHT22;25188;51.958;5.842;2022-07-10T14:54:23;27.10;54.00
39021;DHT22;25188;51.958;5.842;2022-07-10T14:56:49;27.10;53.90
39021;DHT22;25188;51.958;5.842;2022-07-10T14:59:15;27.10;53.90
39021;DHT22;25188;51.958;5.842;2022-07-10T15:01:41;27.10;54.10
39021;DHT22;25188;51.958;5.842;2022-07-10T15:04:07;27.10;54.20
39021;DHT22;25188;51.958;5.842;2022-07-10T15:06:32;27.10;54.10
39021;DHT22;25188;51.958;5.842;2022-07-10T15:08:58;27.10;53.80
39021;DHT22;25188;51.958;5.842;2022-07-10T15:11:24;27.10;53.60
39021;DHT22;25188;51.958;5.842;2022-07-10T15:13:52;27.10;53.50
39021;DHT22;25188;51.958;5.842;2022-07-10T15:16:24;27.10;53.50
39021;DHT22;25188;51.958;5.842;2022-07-10T15:18:50;27.00;53.50
39021;DHT22;25188;51.958;5.842;2022-07-10T15:21:16;27.00;53.40
39021;DHT22;25188;51.958;5.842;2022-07-10T15:23:42;26.90;53.40
39021;DHT22;25188;51.958;5.842;2022-07-10T15:26:07;26.90;53.50
39021;DHT22;25188;51.958;5.842;2022-07-10T15:28:33;27.00;53.60
39021;DHT22;25188;51.958;5.842;2022-07-10T15:31:00;27.10;53.50
39021;DHT22;25188;51.958;5.842;2022-07-10T15:33:27;27.10;53.30
39021;DHT22;25188;51.958;5.842;2022-07-10T15:35:52;27.10;53.20
39021;DHT22;25188;51.958;5.842;2022-07-10T15:38:18;27.10;53.40
39021;DHT22;25188;51.958;5.842;2022-07-10T15:40:45;27.10;53.40
39021;DHT22;25188;51.958;5.842;2022-07-10T15:43:10;27.00;54.00
39021;DHT22;25188;51.958;5.842;2022-07-10T15:45:36;27.00;53.50
39021;DHT22;25188;51.958;5.842;2022-07-10T15:48:01;26.90;53.50
39021;DHT22;25188;51.958;5.842;2022-07-10T15:50:27;26.90;53.60
39021;DHT22;25188;51.958;5.842;2022-07-10T15:52:53;26.80;53.70
39021;DHT22;25188;51.958;5.842;2022-07-10T15:55:18;26.60;54.40
39021;DHT22;25188;51.958;5.842;2022-07-10T15:57:44;26.60;54.00
39021;DHT22;25188;51.958;5.842;2022-07-10T16:00:10;26.50;54.20
39021;DHT22;25188;51.958;5.842;2022-07-10T16:02:37;26.50;54.50
39021;DHT22;25188;51.958;5.842;2022-07-10T16:05:03;26.40;54.60